createdAt,value
2023-01-10T00:00:34.780Z,2.92
2023-01-10T00:03:08.223Z,3.88
2023-01-10T00:08:03.557Z,5.05
2023-01-10T00:10:31.508Z,3.25
2023-01-10T00:13:18.012Z,4.18
2023-01-10T00:15:44.923Z,2.95
2023-01-10T00:18:11.954Z,2.80
2023-01-10T00:20:38.698Z,5.05
2023-01-10T00:23:05.580Z,3.97
2023-01-10T00:25:34.342Z,3.10
2023-01-10T00:28:19.474Z,2.75
2023-01-10T00:31:01.217Z,2.47
2023-01-10T00:33:30.100Z,3.47
2023-01-10T00:35:56.743Z,4.20
2023-01-10T00:38:23.743Z,2.03
2023-01-10T00:40:50.504Z,2.45
2023-01-10T00:43:35.859Z,2.63
2023-01-10T00:46:05.159Z,2.78
2023-01-10T00:48:31.901Z,4.68
2023-01-10T00:50:58.592Z,3.08
2023-01-10T00:53:25.437Z,3.83
2023-01-10T00:55:53.795Z,3.03
2023-01-10T00:58:20.650Z,2.65
2023-01-10T01:00:51.779Z,2.42
2023-01-10T01:03:20.240Z,2.75
2023-01-10T01:05:48.916Z,3.65
2023-01-10T01:08:16.819Z,3.28
2023-01-10T01:10:43.685Z,3.17
2023-01-10T01:13:14.535Z,3.03
2023-01-10T01:15:41.371Z,3.40
2023-01-10T01:18:08.829Z,3.67
2023-01-10T01:20:35.576Z,3.33
2023-01-10T01:23:02.259Z,4.03
2023-01-10T01:25:28.993Z,3.78
2023-01-10T01:27:55.746Z,6.13
2023-01-10T01:30:22.587Z,3.13
2023-01-10T01:32:49.396Z,4.20
2023-01-10T01:35:17.046Z,3.03
2023-01-10T01:37:44.241Z,2.88
2023-01-10T01:40:19.312Z,2.85
2023-01-10T01:42:46.971Z,3.80
2023-01-10T01:45:22.787Z,3.13
2023-01-10T01:47:58.210Z,4.28
2023-01-10T01:50:29.590Z,3.63
2023-01-10T01:53:00.773Z,3.35
2023-01-10T01:55:33.193Z,3.33
2023-01-10T01:58:04.090Z,3.10
2023-01-10T02:00:30.824Z,3.38
2023-01-10T02:03:02.993Z,4.05
2023-01-10T02:05:33.126Z,4.70
2023-01-10T02:08:02.421Z,4.40
2023-01-10T02:10:52.819Z,3.60
2023-01-10T02:13:22.860Z,2.60
2023-01-10T02:15:50.098Z,3.50
2023-01-10T02:18:17.962Z,3.60
2023-01-10T02:21:00.797Z,3.42
2023-01-10T02:23:33.589Z,2.42
2023-01-10T02:26:02.861Z,3.38
2023-01-10T02:29:15.454Z,2.85
2023-01-10T02:31:57.155Z,4.35
2023-01-10T02:35:00.385Z,2.28
2023-01-10T02:37:34.022Z,2.25
2023-01-10T02:40:06.154Z,1.77
2023-01-10T02:43:01.017Z,2.00
2023-01-10T02:45:47.789Z,1.83
2023-01-10T02:48:16.984Z,2.83
2023-01-10T02:50:44.349Z,3.15
2023-01-10T02:53:21.770Z,1.80
2023-01-10T02:55:51.650Z,2.00
2023-01-10T02:58:33.496Z,2.03
2023-01-10T03:01:58.836Z,2.17
2023-01-10T03:04:37.496Z,2.78
2023-01-10T03:07:31.241Z,3.25
2023-01-10T03:10:06.758Z,2.25
2023-01-10T03:12:46.286Z,2.13
2023-01-10T03:15:18.220Z,2.28
2023-01-10T03:17:50.707Z,2.08
2023-01-10T03:20:20.954Z,1.52
2023-01-10T03:22:48.492Z,1.60
2023-01-10T03:25:17.533Z,3.40
2023-01-10T03:28:09.549Z,1.38
2023-01-10T03:31:00.923Z,1.80
2023-01-10T03:33:30.831Z,1.30
2023-01-10T03:36:27.411Z,1.55
2023-01-10T03:38:55.246Z,1.13
2023-01-10T03:41:45.253Z,1.10
2023-01-10T03:44:45.220Z,1.40
2023-01-10T03:47:23.758Z,1.23
2023-01-10T03:49:55.779Z,1.83
2023-01-10T03:52:24.036Z,2.30
2023-01-10T03:54:51.178Z,1.42
2023-01-10T03:57:24.910Z,1.58
2023-01-10T03:59:59.701Z,1.42
2023-01-10T04:02:31.702Z,1.30
2023-01-10T04:04:59.314Z,1.08
2023-01-10T04:07:27.001Z,0.98
2023-01-10T04:09:54.299Z,1.08
2023-01-10T04:12:21.250Z,0.63
2023-01-10T04:14:48.007Z,0.75
2023-01-10T04:17:16.531Z,0.63
2023-01-10T04:19:44.139Z,2.15
2023-01-10T04:22:11.934Z,0.43
2023-01-10T04:24:38.871Z,0.35
2023-01-10T04:27:05.779Z,0.20
2023-01-10T04:29:32.464Z,0.50
2023-01-10T04:31:59.139Z,0.20
2023-01-10T04:34:25.866Z,0.90
2023-01-10T04:36:52.659Z,0.20
2023-01-10T04:39:19.315Z,0.30
2023-01-10T04:41:45.972Z,0.32
2023-01-10T04:44:12.999Z,0.20
2023-01-10T04:46:39.637Z,0.30
2023-01-10T04:49:07.395Z,0.20
2023-01-10T04:51:34.136Z,0.30
2023-01-10T04:54:00.856Z,0.22
2023-01-10T04:56:27.619Z,0.40
2023-01-10T04:58:54.554Z,0.20
2023-01-10T05:01:24.768Z,0.10
2023-01-10T05:03:53.897Z,0.10
2023-01-10T05:06:21.990Z,0.10
2023-01-10T05:08:48.734Z,0.10
2023-01-10T05:11:15.647Z,0.08
2023-01-10T05:13:42.569Z,0.10
2023-01-10T05:16:09.272Z,0.20
2023-01-10T05:18:35.900Z,0.20
2023-01-10T05:21:06.079Z,0.13
2023-01-10T05:23:33.212Z,0.15
2023-01-10T05:26:18.976Z,0.30
2023-01-10T05:28:46.085Z,0.10
2023-01-10T05:31:16.603Z,0.00
2023-01-10T05:33:51.276Z,0.10
2023-01-10T05:36:19.209Z,0.03
2023-01-10T05:38:46.506Z,0.10
2023-01-10T05:41:13.357Z,0.10
2023-01-10T05:43:40.083Z,0.00
2023-01-10T05:46:07.080Z,0.10
2023-01-10T05:48:33.894Z,0.00
2023-01-10T05:51:00.760Z,0.00
2023-01-10T05:53:27.518Z,0.00
2023-01-10T05:56:00.114Z,0.00
2023-01-10T05:58:27.530Z,0.10
2023-01-10T06:00:55.588Z,0.00
2023-01-10T06:03:23.064Z,0.10
2023-01-10T06:05:49.782Z,0.05
2023-01-10T06:08:16.868Z,0.22
2023-01-10T06:10:43.787Z,0.10
2023-01-10T06:13:12.173Z,0.00
2023-01-10T06:15:39.502Z,0.10
2023-01-10T06:18:07.018Z,0.17
2023-01-10T06:20:33.791Z,0.22
2023-01-10T06:23:04.497Z,0.10
2023-01-10T06:25:37.132Z,0.30
2023-01-10T06:28:04.143Z,0.35
2023-01-10T06:30:30.904Z,0.10
2023-01-10T06:33:04.812Z,0.10
2023-01-10T06:35:33.424Z,0.20
2023-01-10T06:38:00.189Z,0.10
2023-01-10T06:40:28.120Z,0.20
2023-01-10T06:42:54.847Z,0.65
2023-01-10T06:45:21.657Z,0.10
2023-01-10T06:47:48.357Z,0.32
2023-01-10T06:50:15.075Z,0.40
2023-01-10T06:52:42.101Z,0.30
2023-01-10T06:55:09.047Z,0.38
2023-01-10T06:57:35.757Z,0.20
2023-01-10T07:00:07.359Z,0.20
2023-01-10T07:02:34.131Z,0.10
2023-01-10T07:05:00.824Z,0.10
2023-01-10T07:07:27.455Z,0.30
2023-01-10T07:09:54.102Z,0.40
2023-01-10T07:12:20.765Z,0.32
2023-01-10T07:14:47.411Z,0.40
2023-01-10T07:17:14.074Z,0.20
2023-01-10T07:19:40.704Z,0.10
2023-01-10T07:22:07.348Z,0.00
2023-01-10T07:24:34.422Z,0.15
2023-01-10T07:27:01.104Z,0.10
2023-01-10T07:29:27.842Z,0.10
2023-01-10T07:31:54.520Z,0.10
2023-01-10T07:34:21.158Z,0.10
2023-01-10T07:36:47.881Z,0.20
2023-01-10T07:39:14.594Z,0.00
2023-01-10T07:41:41.281Z,0.10
2023-01-10T07:44:08.105Z,0.13
2023-01-10T07:46:34.812Z,0.15
2023-01-10T07:49:01.442Z,0.08
2023-01-10T07:51:28.181Z,0.10
2023-01-10T07:53:54.849Z,0.00
2023-01-10T07:56:21.602Z,0.00
2023-01-10T07:58:48.266Z,0.10
2023-01-10T08:01:15.028Z,0.10
2023-01-10T08:03:41.851Z,0.20
2023-01-10T08:06:14.797Z,0.10
2023-01-10T08:08:43.439Z,0.00
2023-01-10T08:11:10.121Z,0.10
2023-01-10T08:13:36.893Z,0.15
2023-01-10T08:16:07.659Z,0.10
2023-01-10T08:18:34.985Z,0.30
2023-01-10T08:21:01.633Z,0.30
2023-01-10T08:23:28.389Z,0.20
2023-01-10T08:25:58.688Z,0.40
2023-01-10T08:28:25.356Z,0.20
2023-01-10T08:30:55.688Z,0.30
2023-01-10T08:33:24.055Z,0.13
2023-01-10T08:35:51.548Z,0.10
2023-01-10T08:38:18.273Z,0.10
2023-01-10T08:40:44.971Z,0.20
2023-01-10T08:43:12.997Z,0.10
2023-01-10T08:45:39.907Z,0.10
2023-01-10T08:48:09.368Z,0.10
2023-01-10T08:50:36.411Z,0.20
2023-01-10T08:53:03.107Z,0.22
2023-01-10T08:55:31.357Z,0.15
2023-01-10T08:58:02.591Z,0.13
2023-01-10T09:00:30.033Z,0.30
2023-01-10T09:02:56.822Z,1.17
2023-01-10T09:05:27.995Z,0.10
2023-01-10T09:08:00.427Z,0.30
2023-01-10T09:10:28.410Z,0.22
2023-01-10T09:12:55.061Z,0.43
2023-01-10T09:15:27.305Z,0.30
2023-01-10T09:17:58.826Z,0.38
2023-01-10T09:20:26.694Z,0.30
2023-01-10T09:22:53.611Z,0.88
2023-01-10T09:25:21.083Z,0.22
2023-01-10T09:27:47.741Z,0.20
2023-01-10T09:30:14.745Z,0.63
2023-01-10T09:32:41.471Z,0.20
2023-01-10T09:35:08.388Z,0.22
2023-01-10T09:37:35.119Z,0.40
2023-01-10T09:40:01.953Z,0.40
2023-01-10T09:42:40.890Z,0.40
2023-01-10T09:45:48.611Z,0.40
2023-01-10T09:48:53.821Z,0.32
2023-01-10T09:51:30.411Z,1.33
2023-01-10T09:54:10.702Z,0.55
2023-01-10T09:56:40.499Z,0.52
2023-01-10T09:59:15.254Z,0.50
2023-01-10T10:01:42.116Z,0.70
2023-01-10T10:04:32.334Z,0.40
2023-01-10T10:06:59.411Z,0.57
2023-01-10T10:09:30.142Z,0.52
2023-01-10T10:12:27.105Z,0.50
2023-01-10T10:14:59.402Z,0.45
2023-01-10T10:17:36.183Z,0.20
2023-01-10T10:20:21.719Z,1.77
2023-01-10T10:23:13.234Z,0.90
2023-01-10T10:26:07.028Z,0.32
2023-01-10T10:28:55.505Z,0.30
2023-01-10T10:31:53.381Z,0.32
2023-01-10T10:34:38.510Z,0.30
2023-01-10T10:37:36.355Z,0.57
2023-01-10T10:40:25.944Z,0.20
2023-01-10T10:42:56.217Z,0.13
2023-01-10T10:45:47.558Z,0.50
2023-01-10T10:48:23.864Z,0.40
2023-01-10T10:50:58.433Z,0.32
2023-01-10T10:53:25.452Z,0.20
2023-01-10T10:55:53.485Z,0.35
2023-01-10T10:58:20.619Z,0.25
2023-01-10T11:00:48.095Z,0.35
2023-01-10T11:03:21.053Z,0.82
2023-01-10T11:05:48.376Z,0.30
2023-01-10T11:08:17.514Z,0.30
2023-01-10T11:10:53.522Z,0.10
2023-01-10T11:13:26.201Z,0.28
2023-01-10T11:15:55.323Z,0.25
2023-01-10T11:18:26.389Z,0.20
2023-01-10T11:20:58.888Z,0.30
2023-01-10T11:23:40.663Z,0.40
2023-01-10T11:26:11.084Z,0.60
2023-01-10T11:28:38.575Z,0.50
2023-01-10T11:31:05.477Z,0.60
2023-01-10T11:33:39.981Z,0.40
2023-01-10T11:36:09.626Z,0.20
2023-01-10T11:38:36.761Z,0.57
2023-01-10T11:41:18.678Z,0.50
2023-01-10T11:43:47.041Z,0.20
2023-01-10T11:46:17.446Z,0.30
2023-01-10T11:49:05.620Z,0.40
2023-01-10T11:51:38.204Z,0.22
2023-01-10T11:56:43.621Z,0.40
2023-01-10T11:59:15.240Z,0.40
2023-01-10T12:01:59.123Z,0.38
2023-01-10T12:04:29.658Z,0.45
2023-01-10T12:07:04.453Z,0.30
2023-01-10T12:09:44.752Z,0.40
2023-01-10T12:12:29.347Z,0.47
2023-01-10T12:14:58.966Z,0.40
2023-01-10T12:17:31.535Z,0.50
2023-01-10T12:20:03.589Z,0.10
2023-01-10T12:22:35.331Z,0.63
2023-01-10T12:25:24.124Z,0.30
2023-01-10T12:27:51.320Z,0.38
2023-01-10T12:30:28.054Z,0.40
2023-01-10T12:32:58.433Z,0.38
2023-01-10T12:35:39.529Z,0.50
2023-01-10T12:38:47.322Z,0.45
2023-01-10T12:41:42.941Z,0.45
2023-01-10T12:44:19.331Z,0.30
2023-01-10T12:47:10.814Z,0.28
2023-01-10T12:49:49.135Z,0.20
2023-01-10T12:52:32.810Z,0.70
2023-01-10T12:55:00.360Z,0.52
2023-01-10T12:57:39.756Z,0.40
2023-01-10T13:00:15.866Z,0.57
2023-01-10T13:02:46.182Z,0.50
2023-01-10T13:05:21.694Z,0.65
2023-01-10T13:07:51.213Z,0.85
2023-01-10T13:10:22.509Z,0.57
2023-01-10T13:13:19.074Z,0.32
2023-01-10T13:15:55.491Z,0.50
2023-01-10T13:18:28.673Z,0.70
2023-01-10T13:21:05.355Z,0.95
2023-01-10T13:23:34.208Z,0.90
2023-01-10T13:26:09.017Z,0.65
2023-01-10T13:28:41.652Z,0.50
2023-01-10T13:31:24.039Z,0.50
2023-01-10T13:33:55.157Z,0.63
2023-01-10T13:36:26.737Z,0.45
2023-01-10T13:38:59.171Z,0.77
2023-01-10T13:42:16.011Z,0.60
2023-01-10T13:45:03.937Z,0.43
2023-01-10T13:47:40.184Z,0.40
2023-01-10T13:50:36.437Z,0.30
2023-01-10T13:53:03.885Z,0.60
2023-01-10T13:55:36.697Z,0.55
2023-01-10T13:58:14.876Z,0.50
2023-01-10T14:01:05.820Z,0.73
2023-01-10T14:03:40.382Z,0.85
2023-01-10T14:06:19.141Z,0.60
2023-01-10T14:09:11.762Z,0.50
2023-01-10T14:11:44.436Z,0.40
2023-01-10T14:14:34.760Z,0.30
2023-01-10T14:17:21.814Z,0.50
2023-01-10T14:19:59.227Z,1.50
2023-01-10T14:22:38.354Z,0.75
2023-01-10T14:25:20.953Z,0.93
2023-01-10T14:27:50.984Z,0.40
2023-01-10T14:30:20.829Z,0.38
2023-01-10T14:32:51.456Z,1.38
2023-01-10T14:35:22.175Z,0.38
2023-01-10T14:37:55.592Z,0.30
2023-01-10T14:40:40.970Z,0.32
2023-01-10T14:43:20.216Z,0.57
2023-01-10T14:46:08.789Z,0.60
2023-01-10T14:48:41.524Z,0.52
2023-01-10T14:51:22.418Z,0.30
2023-01-10T14:54:13.261Z,0.47
2023-01-10T14:56:42.872Z,0.30
2023-01-10T14:59:34.387Z,0.75
2023-01-10T15:02:04.276Z,0.67
2023-01-10T15:04:33.878Z,0.68
2023-01-10T15:07:09.754Z,0.50
2023-01-10T15:09:36.506Z,0.73
2023-01-10T15:12:07.301Z,0.40
2023-01-10T15:14:36.525Z,0.68
2023-01-10T15:17:06.402Z,0.47
2023-01-10T15:19:36.208Z,0.40
2023-01-10T15:22:04.734Z,0.47
2023-01-10T15:24:36.881Z,0.65
2023-01-10T15:29:33.653Z,0.47
2023-01-10T15:32:11.709Z,0.57
2023-01-10T15:34:39.674Z,0.60
2023-01-10T15:37:08.367Z,0.73
2023-01-10T15:39:39.062Z,0.35
2023-01-10T15:42:11.674Z,0.60
2023-01-10T15:44:46.051Z,0.77
2023-01-10T15:47:40.542Z,0.95
2023-01-10T15:50:45.563Z,0.50
2023-01-10T15:53:12.276Z,0.52
2023-01-10T15:55:54.784Z,0.50
2023-01-10T15:58:35.962Z,0.57
2023-01-10T16:01:06.761Z,0.65
2023-01-10T16:03:40.082Z,0.40
2023-01-10T16:06:12.503Z,0.30
2023-01-10T16:08:39.428Z,0.50
2023-01-10T16:11:39.533Z,1.15
2023-01-10T16:14:06.178Z,0.77
2023-01-10T16:16:33.257Z,0.70
2023-01-10T16:19:02.718Z,1.33
2023-01-10T16:21:35.228Z,1.10
2023-01-10T16:26:30.127Z,1.25
2023-01-10T16:28:56.752Z,1.88
2023-01-10T16:31:23.532Z,2.67
2023-01-10T16:33:50.280Z,1.50
2023-01-10T16:36:20.917Z,1.58
2023-01-10T16:38:48.198Z,1.25
2023-01-10T16:41:33.726Z,1.00
2023-01-10T16:44:00.812Z,0.60
2023-01-10T16:46:28.113Z,0.95
2023-01-10T16:48:55.090Z,1.40
2023-01-10T16:51:25.073Z,1.02
2023-01-10T16:53:52.223Z,0.85
2023-01-10T16:56:22.021Z,1.35
2023-01-10T16:58:49.687Z,0.60
2023-01-10T17:01:20.055Z,0.60
2023-01-10T17:03:47.516Z,0.70
2023-01-10T17:06:15.740Z,1.35
2023-01-10T17:08:43.813Z,1.40
2023-01-10T17:11:21.722Z,1.33
2023-01-10T17:13:48.871Z,1.25
2023-01-10T17:16:19.329Z,1.73
2023-01-10T17:18:46.710Z,0.90
2023-01-10T17:21:18.407Z,1.15
2023-01-10T17:23:45.914Z,1.75
2023-01-10T17:26:15.255Z,2.15
2023-01-10T17:28:41.980Z,2.33
2023-01-10T17:31:09.658Z,1.77
2023-01-10T17:33:36.611Z,1.67
2023-01-10T17:36:03.710Z,1.45
2023-01-10T17:38:31.820Z,2.25
2023-01-10T17:41:02.824Z,2.30
2023-01-10T17:43:30.587Z,1.63
2023-01-10T17:46:00.716Z,2.25
2023-01-10T17:48:27.490Z,3.38
2023-01-10T17:50:59.593Z,2.80
2023-01-10T17:55:54.037Z,2.40
2023-01-10T17:58:21.712Z,2.63
2023-01-10T18:00:49.102Z,2.50
2023-01-10T18:03:17.029Z,2.45
2023-01-10T18:05:55.002Z,2.20
2023-01-10T18:08:22.611Z,2.30
2023-01-10T18:10:49.985Z,3.30
2023-01-10T18:13:18.506Z,3.15
2023-01-10T18:15:48.106Z,2.60
2023-01-10T18:18:16.625Z,3.65
2023-01-10T18:20:44.655Z,2.97
2023-01-10T18:23:21.199Z,4.38
2023-01-10T18:25:56.541Z,2.45
2023-01-10T18:28:39.604Z,2.30
2023-01-10T18:31:12.760Z,2.90
2023-01-10T18:33:40.221Z,2.60
2023-01-10T18:36:08.823Z,3.78
2023-01-10T18:38:36.595Z,3.20
2023-01-10T18:41:03.958Z,2.88
2023-01-10T18:43:31.354Z,2.38
2023-01-10T18:46:11.746Z,3.50
2023-01-10T18:48:38.880Z,2.80
2023-01-10T18:51:06.368Z,3.10
2023-01-10T18:53:33.327Z,4.82
2023-01-10T18:56:02.534Z,2.53
2023-01-10T18:58:34.432Z,2.20
2023-01-10T19:01:13.650Z,2.80
2023-01-10T19:03:40.887Z,2.67
2023-01-10T19:06:11.350Z,2.40
2023-01-10T19:08:42.640Z,2.72
2023-01-10T19:11:14.543Z,2.40
2023-01-10T19:13:42.509Z,3.50
2023-01-10T19:16:21.809Z,3.50
2023-01-10T19:18:50.323Z,3.00
2023-01-10T19:21:19.438Z,3.60
2023-01-10T19:23:48.925Z,3.35
2023-01-10T19:26:16.329Z,3.03
2023-01-10T19:28:44.158Z,3.85
2023-01-10T19:31:15.757Z,3.88
2023-01-10T19:33:44.053Z,4.18
2023-01-10T19:36:11.353Z,2.60
2023-01-10T19:38:38.015Z,2.30
2023-01-10T19:41:05.089Z,2.38
2023-01-10T19:43:32.212Z,1.67
2023-01-10T19:45:59.003Z,2.45
2023-01-10T19:48:25.872Z,2.28
2023-01-10T19:50:52.602Z,2.80
2023-01-10T19:53:23.851Z,2.17
2023-01-10T19:56:01.923Z,2.15
2023-01-10T19:58:28.716Z,1.63
2023-01-10T20:00:55.427Z,2.13
2023-01-10T20:03:22.074Z,2.22
2023-01-10T20:05:48.687Z,2.38
2023-01-10T20:08:15.459Z,3.63
2023-01-10T20:10:42.141Z,3.05
2023-01-10T20:13:10.331Z,2.47
2023-01-10T20:15:37.189Z,3.00
2023-01-10T20:18:04.033Z,3.03
2023-01-10T20:20:31.182Z,2.35
2023-01-10T20:22:57.852Z,2.92
2023-01-10T20:25:24.476Z,2.60
2023-01-10T20:27:51.207Z,2.72
2023-01-10T20:30:18.747Z,2.53
2023-01-10T20:32:46.516Z,2.35
2023-01-10T20:35:14.060Z,2.22
2023-01-10T20:37:40.739Z,3.13
2023-01-10T20:40:09.800Z,2.30
2023-01-10T20:42:36.563Z,3.08
2023-01-10T20:45:04.266Z,2.05
2023-01-10T20:47:32.276Z,3.72
2023-01-10T20:49:59.043Z,2.85
2023-01-10T20:52:27.265Z,2.67
2023-01-10T20:54:53.954Z,2.78
2023-01-10T20:57:20.637Z,2.55
2023-01-10T20:59:47.373Z,3.85
2023-01-10T21:02:14.155Z,3.75
2023-01-10T21:04:40.964Z,3.88
2023-01-10T21:07:07.845Z,3.67
2023-01-10T21:09:34.549Z,3.00
2023-01-10T21:12:13.845Z,2.95
2023-01-10T21:14:49.428Z,4.35
2023-01-10T21:17:16.218Z,4.07
2023-01-10T21:19:43.452Z,5.38
2023-01-10T21:22:11.608Z,3.92
2023-01-10T21:24:38.656Z,5.90
2023-01-10T21:27:05.484Z,3.63
2023-01-10T21:29:32.119Z,5.68
2023-01-10T21:31:58.777Z,4.45
2023-01-10T21:34:25.998Z,4.95
2023-01-10T21:36:52.686Z,4.63
2023-01-10T21:39:19.935Z,4.65
2023-01-10T21:42:05.121Z,3.95
2023-01-10T21:44:33.538Z,4.07
2023-01-10T21:47:00.247Z,4.05
2023-01-10T21:49:26.964Z,3.70
2023-01-10T21:51:53.725Z,3.78
2023-01-10T21:54:21.683Z,4.57
2023-01-10T21:56:48.332Z,3.22
2023-01-10T21:59:15.120Z,3.97
2023-01-10T22:01:41.846Z,3.88
2023-01-10T22:04:08.742Z,3.65
2023-01-10T22:06:35.589Z,4.38
2023-01-10T22:09:02.256Z,4.55
2023-01-10T22:11:29.919Z,4.10
2023-01-10T22:13:58.767Z,3.53
2023-01-10T22:16:25.520Z,3.47
2023-01-10T22:18:52.415Z,4.13
2023-01-10T22:21:21.476Z,3.17
2023-01-10T22:23:48.580Z,3.15
2023-01-10T22:26:16.307Z,3.33
2023-01-10T22:28:43.049Z,4.15
2023-01-10T22:31:09.826Z,3.88
2023-01-10T22:33:37.723Z,3.97
2023-01-10T22:36:18.028Z,2.67
2023-01-10T22:38:48.563Z,2.80
2023-01-10T22:41:17.789Z,2.90
2023-01-10T22:43:45.566Z,3.95
2023-01-10T22:46:16.176Z,3.08
2023-01-10T22:48:43.780Z,2.45
2023-01-10T22:51:10.421Z,2.63
2023-01-10T22:53:37.128Z,2.85
2023-01-10T22:56:06.778Z,3.58
2023-01-10T22:58:33.634Z,3.08
2023-01-10T23:01:06.878Z,3.25
2023-01-10T23:03:34.050Z,2.58
2023-01-10T23:06:01.206Z,3.28
2023-01-10T23:08:28.194Z,5.10
2023-01-10T23:10:54.988Z,2.55
2023-01-10T23:13:22.582Z,4.78
2023-01-10T23:15:57.444Z,2.58
2023-01-10T23:18:25.661Z,2.47
2023-01-10T23:20:52.789Z,4.40
2023-01-10T23:23:19.521Z,5.90
2023-01-10T23:25:46.399Z,2.55
2023-01-10T23:28:13.068Z,3.15
2023-01-10T23:30:40.972Z,3.10
2023-01-10T23:33:07.647Z,2.45
2023-01-10T23:35:34.284Z,2.95
2023-01-10T23:38:00.996Z,3.15
2023-01-10T23:40:27.764Z,2.92
2023-01-10T23:42:54.429Z,1.67
2023-01-10T23:45:21.510Z,2.40
2023-01-10T23:47:48.270Z,2.60
2023-01-10T23:50:15.233Z,3.50
2023-01-10T23:52:41.947Z,2.38
2023-01-10T23:55:08.987Z,3.80
2023-01-10T23:57:35.778Z,2.63
